createdAt,value
2023-02-05T00:06:38.399Z,2.00
2023-02-05T00:11:34.861Z,2.00
2023-02-05T00:16:29.731Z,2.00
2023-02-05T00:18:57.537Z,1.90
2023-02-05T00:21:24.911Z,3.00
2023-02-05T00:31:17.908Z,1.90
2023-02-05T00:36:14.329Z,1.90
2023-02-05T00:38:43.142Z,1.90
2023-02-05T00:41:11.307Z,1.90
2023-02-05T00:43:39.316Z,2.00
2023-02-05T00:55:56.155Z,2.10
2023-02-05T01:03:20.045Z,2.10
2023-02-05T01:10:48.525Z,2.10
2023-02-05T01:20:42.015Z,1.90
2023-02-05T01:25:36.897Z,2.00
2023-02-05T01:28:04.567Z,1.90
2023-02-05T01:30:31.853Z,2.00
2023-02-05T01:32:58.878Z,2.00
2023-02-05T01:35:25.943Z,2.10
2023-02-05T01:45:32.855Z,2.10
2023-02-05T01:48:02.444Z,2.10
2023-02-05T01:50:57.366Z,1.40
2023-02-05T01:53:31.645Z,2.10
2023-02-05T01:56:03.543Z,2.20
2023-02-05T01:58:35.995Z,2.30
2023-02-05T02:03:31.985Z,2.30
2023-02-05T02:05:59.432Z,2.40
2023-02-05T02:10:55.488Z,2.50
2023-02-05T02:15:51.374Z,2.70
2023-02-05T02:18:28.685Z,2.50
2023-02-05T02:21:04.752Z,2.50
2023-02-05T02:24:13.840Z,2.60
2023-02-05T02:27:00.709Z,2.70
2023-02-05T02:29:39.107Z,2.60
2023-02-05T02:32:16.832Z,2.70
2023-02-05T02:34:55.581Z,2.80
2023-02-05T02:37:27.319Z,2.80
2023-02-05T02:40:05.391Z,2.80
2023-02-05T02:42:49.525Z,2.80
2023-02-05T02:45:21.597Z,2.80
2023-02-05T02:47:53.530Z,2.90
2023-02-05T02:50:26.531Z,2.80
2023-02-05T02:52:56.011Z,3.00
2023-02-05T02:55:24.659Z,2.90
2023-02-05T02:57:54.324Z,3.20
2023-02-05T03:00:26.986Z,3.20
2023-02-05T03:03:01.494Z,2.70
2023-02-05T03:05:29.850Z,3.30
2023-02-05T03:08:02.806Z,2.90
2023-02-05T03:10:46.805Z,3.20
2023-02-05T03:18:17.658Z,3.30
2023-02-05T03:20:50.843Z,3.00
2023-02-05T03:23:18.684Z,3.20
2023-02-05T03:25:45.904Z,3.10
2023-02-05T03:28:15.244Z,3.20
2023-02-05T03:31:12.555Z,3.30
2023-02-05T03:33:55.851Z,3.30
2023-02-05T03:36:45.311Z,3.30
2023-02-05T03:39:27.833Z,3.40
2023-02-05T03:42:19.246Z,6.20
2023-02-05T03:47:56.977Z,3.30
2023-02-05T03:50:48.194Z,3.30
2023-02-05T03:53:23.835Z,5.40
2023-02-05T03:56:17.920Z,3.30
2023-02-05T03:58:54.895Z,3.30
2023-02-05T04:01:23.128Z,3.30
2023-02-05T04:13:46.043Z,3.40
2023-02-05T04:16:13.188Z,3.30
2023-02-05T04:21:07.782Z,3.40
2023-02-05T04:26:06.228Z,3.40
2023-02-05T04:28:39.608Z,3.40
2023-02-05T04:31:09.567Z,3.30
2023-02-05T04:33:38.447Z,3.40
2023-02-05T04:36:06.007Z,3.30
2023-02-05T04:38:33.695Z,3.50
2023-02-05T04:50:50.241Z,3.70
2023-02-05T04:53:17.180Z,4.30
2023-02-05T05:05:36.423Z,3.70
2023-02-05T05:08:03.499Z,3.40
2023-02-05T05:25:14.695Z,3.80
2023-02-05T05:27:41.601Z,3.80
2023-02-05T05:30:09.202Z,3.80
2023-02-05T05:32:36.213Z,3.90
2023-02-05T05:43:02.401Z,3.90
2023-02-05T05:45:29.540Z,3.80
2023-02-05T05:47:56.476Z,3.70
2023-02-05T06:00:13.371Z,4.00
2023-02-05T06:02:41.624Z,3.90
2023-02-05T06:05:08.791Z,6.90
2023-02-05T06:10:03.194Z,4.00
2023-02-05T06:14:57.505Z,4.00
2023-02-05T06:17:24.453Z,5.80
2023-02-05T06:19:51.338Z,4.00
2023-02-05T06:22:18.277Z,4.80
2023-02-05T06:24:45.167Z,4.00
2023-02-05T06:27:12.061Z,4.00
2023-02-05T06:29:38.965Z,3.90
2023-02-05T06:32:06.046Z,4.10
2023-02-05T06:39:27.920Z,4.00
2023-02-05T06:41:54.917Z,4.10
2023-02-05T06:44:21.870Z,4.00
2023-02-05T06:54:10.942Z,4.10
2023-02-05T07:01:33.260Z,4.20
2023-02-05T07:13:51.153Z,4.20
2023-02-05T07:18:46.021Z,4.50
2023-02-05T07:21:16.848Z,4.20
2023-02-05T07:23:43.908Z,4.10
2023-02-05T07:26:13.721Z,4.20
2023-02-05T07:28:42.152Z,6.00
2023-02-05T07:31:11.893Z,4.20
2023-02-05T07:33:46.001Z,7.90
2023-02-05T07:36:16.395Z,4.10
2023-02-05T07:38:45.329Z,4.10
2023-02-05T07:41:13.958Z,4.10
2023-02-05T07:46:14.138Z,4.20
2023-02-05T07:56:04.946Z,4.30
2023-02-05T08:01:15.255Z,4.30
2023-02-05T08:03:42.621Z,4.30
2023-02-05T08:06:14.054Z,4.40
2023-02-05T08:16:07.580Z,4.40
2023-02-05T08:21:05.181Z,4.40
2023-02-05T08:23:41.388Z,4.50
2023-02-05T08:31:14.303Z,4.50
2023-02-05T08:41:12.551Z,4.50
2023-02-05T08:43:45.737Z,4.60
2023-02-05T08:46:40.193Z,4.60
2023-02-05T08:49:30.796Z,4.60
2023-02-05T08:52:01.057Z,4.70
2023-02-05T08:54:28.117Z,5.50
2023-02-05T09:01:50.698Z,4.70
2023-02-05T09:04:20.553Z,4.70
2023-02-05T09:11:42.902Z,4.80
2023-02-05T09:14:10.341Z,4.70
2023-02-05T09:16:37.470Z,4.60
2023-02-05T09:19:04.944Z,6.60
2023-02-05T09:21:32.036Z,4.60
2023-02-05T09:26:27.032Z,4.60
2023-02-05T09:28:54.179Z,6.60
2023-02-05T09:31:23.192Z,4.50
2023-02-05T09:33:53.370Z,4.40
2023-02-05T09:36:26.500Z,4.60
2023-02-05T09:39:05.000Z,4.80
2023-02-05T09:42:00.678Z,4.60
2023-02-05T09:44:48.685Z,4.70
2023-02-05T09:47:38.244Z,4.60
2023-02-05T09:50:16.240Z,6.00
2023-02-05T09:52:47.950Z,4.70
2023-02-05T09:55:21.218Z,4.70
2023-02-05T09:57:49.796Z,4.70
2023-02-05T10:00:33.326Z,4.80
2023-02-05T10:03:37.237Z,4.80
2023-02-05T10:09:04.891Z,4.80
2023-02-05T10:11:42.134Z,5.20
2023-02-05T10:14:27.613Z,4.90
2023-02-05T10:17:29.430Z,4.90
2023-02-05T10:20:07.476Z,4.90
2023-02-05T10:23:01.952Z,4.90
2023-02-05T10:25:52.197Z,4.90
2023-02-05T10:28:56.607Z,5.00
2023-02-05T10:31:47.804Z,4.90
2023-02-05T10:34:22.035Z,4.90
2023-02-05T10:36:54.236Z,4.90
2023-02-05T10:39:26.150Z,4.90
2023-02-05T10:42:01.765Z,8.00
2023-02-05T10:44:59.899Z,7.90
2023-02-05T10:47:53.460Z,4.90
2023-02-05T10:50:52.077Z,4.90
2023-02-05T10:53:25.026Z,4.90
2023-02-05T10:58:48.405Z,4.80
2023-02-05T11:01:26.391Z,4.80
2023-02-05T11:04:05.077Z,4.80
2023-02-05T11:06:38.266Z,4.80
2023-02-05T11:09:25.499Z,4.80
2023-02-05T11:12:02.252Z,4.80
2023-02-05T11:14:36.664Z,4.90
2023-02-05T11:17:29.045Z,4.90
2023-02-05T11:20:00.252Z,6.20
2023-02-05T11:22:32.265Z,4.80
2023-02-05T11:25:16.366Z,4.90
2023-02-05T11:27:57.773Z,4.90
2023-02-05T11:30:50.074Z,5.00
2023-02-05T11:33:27.085Z,5.00
2023-02-05T11:38:35.982Z,5.00
2023-02-05T11:41:07.484Z,5.00
2023-02-05T11:46:05.245Z,5.10
2023-02-05T11:48:38.291Z,6.10
2023-02-05T11:51:07.728Z,5.00
2023-02-05T11:53:39.036Z,5.10
2023-02-05T11:56:13.420Z,6.90
2023-02-05T12:01:33.966Z,5.10
2023-02-05T12:04:04.113Z,4.40
2023-02-05T12:06:37.421Z,5.10
2023-02-05T12:12:03.796Z,5.10
2023-02-05T12:15:11.581Z,5.10
2023-02-05T12:17:51.740Z,5.10
2023-02-05T12:20:29.319Z,5.10
2023-02-05T12:23:46.895Z,5.10
2023-02-05T12:26:14.260Z,5.20
2023-02-05T12:28:59.290Z,5.20
2023-02-05T12:31:51.446Z,5.10
2023-02-05T12:37:22.109Z,5.10
2023-02-05T12:40:01.517Z,5.10
2023-02-05T12:42:33.147Z,5.10
2023-02-05T12:45:23.934Z,5.20
2023-02-05T12:48:33.439Z,5.20
2023-02-05T12:51:27.662Z,5.30
2023-02-05T12:54:34.554Z,5.30
2023-02-05T12:57:08.216Z,5.30
2023-02-05T12:59:59.160Z,5.70
2023-02-05T13:02:36.128Z,5.40
2023-02-05T13:06:05.774Z,8.00
2023-02-05T13:11:09.256Z,5.40
2023-02-05T13:13:58.697Z,5.40
2023-02-05T13:16:44.111Z,5.30
2023-02-05T13:19:54.240Z,5.30
2023-02-05T13:22:56.911Z,5.40
2023-02-05T13:25:51.633Z,5.30
2023-02-05T13:28:43.008Z,5.40
2023-02-05T13:31:50.383Z,3.10
2023-02-05T13:34:22.931Z,5.40
2023-02-05T13:37:13.551Z,5.30
2023-02-05T13:40:22.004Z,5.30
2023-02-05T13:43:32.046Z,5.30
2023-02-05T13:46:04.870Z,5.30
2023-02-05T13:48:53.291Z,5.30
2023-02-05T13:51:55.748Z,5.30
2023-02-05T13:54:37.932Z,5.30
2023-02-05T13:57:41.665Z,6.20
2023-02-05T14:00:14.527Z,5.30
2023-02-05T14:05:14.719Z,5.30
2023-02-05T14:07:49.132Z,5.10
2023-02-05T14:10:31.464Z,5.60
2023-02-05T14:13:12.463Z,5.30
2023-02-05T14:15:44.749Z,5.30
2023-02-05T14:18:32.820Z,5.40
2023-02-05T14:20:59.790Z,4.80
2023-02-05T14:23:49.143Z,7.70
2023-02-05T14:26:16.976Z,5.40
2023-02-05T14:28:56.398Z,5.40
2023-02-05T14:31:49.779Z,5.40
2023-02-05T14:34:31.930Z,5.50
2023-02-05T14:36:59.664Z,5.50
2023-02-05T14:39:32.804Z,8.00
2023-02-05T14:42:05.459Z,5.40
2023-02-05T14:44:40.782Z,5.50
2023-02-05T14:47:27.117Z,5.30
2023-02-05T14:50:14.267Z,5.50
2023-02-05T14:52:49.651Z,5.50
2023-02-05T14:55:32.610Z,6.00
2023-02-05T14:58:06.030Z,5.50
2023-02-05T15:00:37.890Z,8.30
2023-02-05T15:03:15.464Z,8.10
2023-02-05T15:05:45.674Z,5.60
2023-02-05T15:08:27.681Z,5.50
2023-02-05T15:11:11.113Z,5.50
2023-02-05T15:16:14.847Z,5.50
2023-02-05T15:18:45.844Z,5.50
2023-02-05T15:21:23.405Z,5.50
2023-02-05T15:24:13.738Z,5.50
2023-02-05T15:26:59.329Z,5.40
2023-02-05T15:29:30.490Z,5.40
2023-02-05T15:32:07.157Z,7.20
2023-02-05T15:34:49.832Z,5.20
2023-02-05T15:37:37.433Z,5.20
2023-02-05T15:40:18.423Z,5.30
2023-02-05T15:42:48.735Z,5.30
2023-02-05T15:45:18.538Z,7.80
2023-02-05T15:47:45.438Z,5.30
2023-02-05T15:50:15.828Z,5.10
2023-02-05T15:52:42.879Z,5.30
2023-02-05T15:55:24.547Z,5.10
2023-02-05T16:00:29.497Z,5.40
2023-02-05T16:03:01.888Z,5.40
2023-02-05T16:05:31.947Z,5.80
2023-02-05T16:08:01.910Z,4.80
2023-02-05T16:10:30.554Z,8.50
2023-02-05T16:13:14.278Z,5.30
2023-02-05T16:16:00.590Z,5.30
2023-02-05T16:18:42.642Z,5.30
2023-02-05T16:21:33.024Z,5.30
2023-02-05T16:24:00.943Z,5.30
2023-02-05T16:26:46.611Z,5.40
2023-02-05T16:29:28.105Z,5.40
2023-02-05T16:32:09.439Z,5.40
2023-02-05T16:34:44.889Z,5.40
2023-02-05T16:37:18.439Z,5.30
2023-02-05T16:39:54.871Z,8.50
2023-02-05T16:42:59.172Z,5.40
2023-02-05T16:48:22.069Z,5.40
2023-02-05T16:50:49.096Z,5.50
2023-02-05T16:53:38.620Z,4.10
2023-02-05T16:56:29.763Z,5.50
2023-02-05T16:59:41.732Z,5.40
2023-02-05T17:02:42.220Z,5.40
2023-02-05T17:05:43.061Z,5.30
2023-02-05T17:08:28.178Z,5.30
2023-02-05T17:11:34.685Z,5.40
2023-02-05T17:14:54.188Z,5.40
2023-02-05T17:18:44.329Z,5.40
2023-02-05T17:21:40.225Z,5.40
2023-02-05T17:27:14.659Z,5.40
2023-02-05T17:32:44.098Z,5.40
2023-02-05T17:35:19.617Z,5.40
2023-02-05T17:43:09.241Z,5.40
2023-02-05T17:45:43.105Z,5.40
2023-02-05T17:48:18.534Z,7.50
2023-02-05T17:59:10.638Z,5.40
2023-02-05T18:02:01.059Z,5.30
2023-02-05T18:04:47.616Z,6.40
2023-02-05T18:07:23.394Z,5.10
2023-02-05T18:15:41.117Z,5.10
2023-02-05T18:21:04.135Z,5.00
2023-02-05T18:23:38.969Z,5.00
2023-02-05T18:26:19.432Z,4.90
2023-02-05T18:36:15.410Z,5.00
2023-02-05T18:38:45.700Z,5.00
2023-02-05T18:43:44.112Z,5.00
2023-02-05T18:46:13.372Z,4.60
2023-02-05T18:51:09.754Z,5.00
2023-02-05T18:53:39.022Z,5.00
2023-02-05T18:56:14.688Z,4.80
2023-02-05T18:58:42.706Z,5.00
2023-02-05T19:06:06.012Z,5.00
2023-02-05T19:23:20.584Z,4.90
2023-02-05T19:38:11.759Z,4.90
2023-02-05T19:40:38.924Z,5.60
2023-02-05T19:43:07.221Z,4.90
2023-02-05T19:45:39.509Z,4.90
2023-02-05T19:48:06.972Z,4.70
2023-02-05T19:53:02.727Z,4.90
2023-02-05T20:00:43.735Z,4.90
2023-02-05T20:20:53.630Z,4.90
2023-02-05T20:26:01.205Z,4.90
2023-02-05T20:28:28.372Z,4.90
2023-02-05T20:33:43.302Z,4.80
2023-02-05T20:36:12.472Z,4.80
2023-02-05T20:38:41.488Z,4.80
2023-02-05T20:41:16.911Z,4.30
2023-02-05T20:43:44.991Z,4.70
2023-02-05T20:46:16.937Z,4.50
2023-02-05T20:51:16.027Z,4.80
2023-02-05T20:56:19.527Z,4.80
2023-02-05T20:58:48.006Z,6.80
2023-02-05T21:01:18.894Z,4.70
2023-02-05T21:03:48.603Z,4.80
2023-02-05T21:06:16.488Z,4.70
2023-02-05T21:08:46.112Z,4.60
2023-02-05T21:11:15.544Z,4.70
2023-02-05T21:13:44.021Z,4.80
2023-02-05T21:16:12.360Z,4.90
2023-02-05T21:21:14.189Z,5.00
2023-02-05T21:23:42.242Z,6.70
2023-02-05T21:26:16.916Z,5.10
2023-02-05T21:28:43.862Z,5.90
2023-02-05T21:31:10.884Z,5.20
2023-02-05T21:36:07.589Z,5.30
2023-02-05T21:38:36.096Z,5.30
2023-02-05T21:41:35.975Z,5.40
2023-02-05T21:44:06.515Z,5.40
2023-02-05T21:46:33.651Z,8.40
2023-02-05T21:51:31.883Z,5.40
2023-02-05T21:54:01.146Z,5.30
2023-02-05T21:56:34.791Z,5.20
2023-02-05T21:59:01.922Z,5.20
2023-02-05T22:01:31.894Z,5.40
2023-02-05T22:04:18.253Z,5.30
2023-02-05T22:09:17.312Z,5.30
2023-02-05T22:12:01.533Z,5.20
2023-02-05T22:14:43.760Z,7.00
2023-02-05T22:17:10.706Z,5.20
2023-02-05T22:22:05.560Z,5.10
2023-02-05T22:24:32.690Z,4.60
2023-02-05T22:36:49.338Z,5.00
2023-02-05T22:44:12.375Z,5.00
2023-02-05T22:46:42.229Z,5.00
2023-02-05T22:49:11.448Z,5.00
2023-02-05T22:51:40.419Z,4.90
2023-02-05T22:54:11.054Z,4.90
2023-02-05T23:01:35.481Z,5.00
2023-02-05T23:04:04.247Z,4.70
2023-02-05T23:06:36.896Z,5.00
2023-02-05T23:09:13.766Z,5.00
2023-02-05T23:11:41.149Z,4.90
2023-02-05T23:14:09.474Z,4.90
2023-02-05T23:16:39.331Z,4.90
2023-02-05T23:19:14.871Z,6.10
2023-02-05T23:21:42.198Z,6.10
2023-02-05T23:24:09.814Z,7.60
2023-02-05T23:26:43.880Z,4.90
2023-02-05T23:29:18.594Z,4.80
2023-02-05T23:44:13.477Z,4.90
2023-02-05T23:46:44.673Z,4.90
2023-02-05T23:54:08.151Z,4.90
2023-02-05T23:56:35.095Z,5.00
2023-02-05T23:59:02.581Z,5.00
